createdAt,value
2018-08-02T00:00:31.277Z,99.90
2018-08-02T00:03:05.896Z,99.90
2018-08-02T00:05:34.693Z,99.90
2018-08-02T00:08:03.585Z,99.90
2018-08-02T00:10:32.357Z,99.90
2018-08-02T00:13:02.861Z,99.90
2018-08-02T00:15:31.693Z,99.90
2018-08-02T00:18:00.593Z,99.90
2018-08-02T00:20:29.465Z,99.90
2018-08-02T00:22:58.353Z,99.90
2018-08-02T00:25:27.177Z,99.90
2018-08-02T00:27:59.480Z,99.90
2018-08-02T00:30:30.457Z,99.90
2018-08-02T00:32:59.316Z,99.90
2018-08-02T00:35:31.280Z,99.90
2018-08-02T00:38:01.101Z,99.90
2018-08-02T00:40:33.289Z,99.90
2018-08-02T00:43:02.065Z,99.90
2018-08-02T00:48:01.268Z,99.90
2018-08-02T00:50:32.121Z,99.90
2018-08-02T00:53:00.953Z,99.90
2018-08-02T00:55:33.645Z,99.90
2018-08-02T00:58:02.618Z,99.90
2018-08-02T01:00:33.405Z,99.90
2018-08-02T01:03:03.197Z,99.90
2018-08-02T01:05:32.036Z,99.90
2018-08-02T01:08:01.849Z,99.90
2018-08-02T01:10:31.642Z,99.90
2018-08-02T01:13:00.525Z,99.90
2018-08-02T01:15:30.333Z,99.90
2018-08-02T01:20:29.753Z,99.90
2018-08-02T01:23:02.325Z,99.90
2018-08-02T01:28:01.449Z,99.90
2018-08-02T01:30:38.741Z,99.90
2018-08-02T01:33:07.561Z,99.90
2018-08-02T01:35:38.686Z,99.90
2018-08-02T01:38:07.525Z,99.90
2018-08-02T01:40:43.261Z,99.90
2018-08-02T01:43:13.101Z,99.90
2018-08-02T01:45:42.982Z,99.90
2018-08-02T01:48:12.765Z,99.90
2018-08-02T01:50:43.541Z,99.90
2018-08-02T01:53:14.396Z,99.90
2018-08-02T01:55:43.179Z,99.90
2018-08-02T01:58:11.973Z,99.90
2018-08-02T02:00:40.899Z,99.90
2018-08-02T02:03:10.696Z,99.90
2018-08-02T02:05:39.441Z,99.90
2018-08-02T02:08:11.728Z,99.90
2018-08-02T02:10:40.540Z,99.90
2018-08-02T02:13:11.928Z,99.90
2018-08-02T02:15:41.629Z,99.90
2018-08-02T02:18:13.864Z,99.90
2018-08-02T02:20:42.776Z,99.90
2018-08-02T02:23:12.573Z,99.90
2018-08-02T02:25:41.441Z,99.90
2018-08-02T02:28:11.289Z,99.90
2018-08-02T02:30:40.157Z,99.90
2018-08-02T02:33:08.946Z,99.90
2018-08-02T02:35:44.393Z,99.90
2018-08-02T02:38:13.257Z,99.90
2018-08-02T02:40:42.057Z,99.90
2018-08-02T02:43:10.916Z,99.90
2018-08-02T02:45:39.774Z,99.90
2018-08-02T02:48:08.893Z,99.90
2018-08-02T02:50:39.737Z,99.90
2018-08-02T02:53:08.529Z,99.90
2018-08-02T02:55:37.345Z,99.90
2018-08-02T02:58:06.301Z,99.90
2018-08-02T03:00:36.173Z,99.90
2018-08-02T03:03:05.029Z,99.90
2018-08-02T03:05:33.833Z,99.90
2018-08-02T03:08:02.677Z,99.90
2018-08-02T03:10:32.597Z,99.90
2018-08-02T03:13:01.342Z,99.90
2018-08-02T03:15:30.213Z,99.90
2018-08-02T03:17:59.997Z,99.90
2018-08-02T03:20:28.951Z,99.90
2018-08-02T03:22:57.789Z,99.90
2018-08-02T03:25:28.641Z,99.90
2018-08-02T03:28:03.209Z,99.90
2018-08-02T03:30:32.049Z,99.90
2018-08-02T03:33:00.839Z,99.90
2018-08-02T03:35:30.675Z,99.90
2018-08-02T03:37:59.541Z,99.90
2018-08-02T03:40:28.297Z,99.90
2018-08-02T03:43:00.205Z,99.90
2018-08-02T03:45:29.121Z,99.90
2018-08-02T03:48:01.582Z,99.90
2018-08-02T03:50:30.413Z,99.90
2018-08-02T03:53:05.086Z,99.90
2018-08-02T03:55:38.125Z,99.90
2018-08-02T03:58:09.045Z,99.90
2018-08-02T04:00:38.825Z,99.90
2018-08-02T04:03:07.721Z,99.90
2018-08-02T04:05:39.987Z,99.90
2018-08-02T04:08:08.957Z,99.90
2018-08-02T04:10:39.773Z,99.90
2018-08-02T04:13:09.632Z,99.90
2018-08-02T04:15:39.453Z,99.90
2018-08-02T04:18:08.272Z,99.90
2018-08-02T04:20:37.076Z,99.90
2018-08-02T04:23:05.872Z,99.90
2018-08-02T04:25:35.668Z,99.90
2018-08-02T04:28:05.541Z,99.90
2018-08-02T04:30:35.285Z,99.90
2018-08-02T04:33:04.084Z,99.90
2018-08-02T04:35:34.829Z,99.90
2018-08-02T04:38:05.977Z,99.90
2018-08-02T04:43:07.784Z,99.90
2018-08-02T04:45:37.581Z,99.90
2018-08-02T04:50:41.877Z,99.90
2018-08-02T04:53:11.688Z,99.90
2018-08-02T04:55:40.496Z,99.90
2018-08-02T04:58:09.381Z,99.90
2018-08-02T05:00:41.865Z,99.90
2018-08-02T05:03:12.664Z,99.90
2018-08-02T05:08:12.029Z,99.90
2018-08-02T05:10:40.817Z,99.90
2018-08-02T05:13:10.630Z,99.90
2018-08-02T05:15:42.389Z,99.90
2018-08-02T05:18:11.168Z,99.90
2018-08-02T05:23:08.452Z,99.90
2018-08-02T05:25:41.189Z,99.90
2018-08-02T05:28:09.997Z,99.90
2018-08-02T05:30:38.772Z,99.90
2018-08-02T05:33:07.616Z,99.90
2018-08-02T05:35:36.599Z,99.90
2018-08-02T05:38:06.269Z,99.90
2018-08-02T05:40:40.081Z,99.90
2018-08-02T05:43:08.864Z,99.90
2018-08-02T05:45:42.064Z,99.90
2018-08-02T05:48:12.000Z,99.90
2018-08-02T05:50:40.864Z,99.90
2018-08-02T05:53:14.453Z,99.90
2018-08-02T05:55:45.337Z,99.90
2018-08-02T05:58:15.124Z,99.90
2018-08-02T06:00:43.936Z,99.90
2018-08-02T06:03:12.824Z,99.90
2018-08-02T06:05:49.160Z,99.90
2018-08-02T06:08:20.052Z,99.90
2018-08-02T06:10:49.928Z,99.90
2018-08-02T06:13:18.752Z,99.90
2018-08-02T06:15:47.484Z,99.90
2018-08-02T06:18:18.369Z,99.90
2018-08-02T06:20:47.193Z,99.90
2018-08-02T06:23:15.990Z,99.90
2018-08-02T06:25:46.712Z,99.90
2018-08-02T06:28:15.839Z,99.90
2018-08-02T06:30:44.824Z,99.90
2018-08-02T06:33:13.552Z,98.70
2018-08-02T06:35:42.392Z,98.30
2018-08-02T06:38:11.116Z,97.10
2018-08-02T06:40:40.025Z,98.60
2018-08-02T06:43:10.840Z,98.20
2018-08-02T06:45:40.632Z,97.40
2018-08-02T06:48:09.348Z,97.40
2018-08-02T06:50:38.164Z,97.00
2018-08-02T06:53:07.120Z,95.80
2018-08-02T06:55:36.884Z,93.20
2018-08-02T06:58:06.720Z,93.80
2018-08-02T07:00:39.792Z,89.20
2018-08-02T07:03:09.516Z,87.50
2018-08-02T07:05:39.212Z,88.20
2018-08-02T07:08:11.790Z,85.80
2018-08-02T07:10:40.572Z,84.90
2018-08-02T07:13:10.373Z,84.60
2018-08-02T07:15:39.164Z,80.00
2018-08-02T07:18:08.100Z,77.30
2018-08-02T07:20:36.816Z,76.20
2018-08-02T07:23:05.545Z,76.80
2018-08-02T07:25:34.372Z,76.20
2018-08-02T07:28:11.142Z,74.60
2018-08-02T07:30:39.977Z,72.40
2018-08-02T07:33:08.729Z,71.00
2018-08-02T07:35:38.473Z,69.70
2018-08-02T07:38:07.399Z,70.50
2018-08-02T07:40:37.209Z,72.50
2018-08-02T07:43:06.039Z,74.10
2018-08-02T07:45:34.921Z,72.40
2018-08-02T07:48:03.780Z,73.90
2018-08-02T07:50:32.685Z,72.10
2018-08-02T07:53:01.513Z,71.70
2018-08-02T07:55:31.229Z,70.30
2018-08-02T07:58:00.029Z,68.80
2018-08-02T08:00:30.760Z,68.50
2018-08-02T08:03:06.213Z,67.80
2018-08-02T08:05:35.041Z,67.00
2018-08-02T08:08:03.809Z,64.80
2018-08-02T08:10:34.529Z,63.60
2018-08-02T08:13:03.488Z,60.60
2018-08-02T08:15:32.299Z,58.50
2018-08-02T08:18:06.000Z,59.70
2018-08-02T08:20:37.877Z,60.00
2018-08-02T08:23:07.696Z,60.90
2018-08-02T08:25:38.520Z,61.00
2018-08-02T08:28:07.296Z,61.40
2018-08-02T08:30:39.884Z,60.80
2018-08-02T08:33:09.913Z,59.70
2018-08-02T08:35:40.642Z,58.20
2018-08-02T08:38:15.152Z,56.30
2018-08-02T08:40:43.997Z,55.90
2018-08-02T08:43:13.840Z,54.50
2018-08-02T08:45:42.625Z,51.20
2018-08-02T08:48:11.612Z,49.20
2018-08-02T08:50:41.486Z,49.30
2018-08-02T08:53:10.344Z,48.80
2018-08-02T08:55:40.133Z,48.40
2018-08-02T08:58:09.897Z,49.60
2018-08-02T09:00:38.712Z,49.80
2018-08-02T09:03:12.021Z,49.70
2018-08-02T09:05:46.844Z,48.40
2018-08-02T09:08:15.637Z,47.70
2018-08-02T09:10:49.233Z,47.80
2018-08-02T09:13:18.041Z,47.30
2018-08-02T09:18:25.478Z,45.70
2018-08-02T09:20:54.328Z,46.90
2018-08-02T09:23:27.248Z,47.20
2018-08-02T09:25:56.925Z,46.60
2018-08-02T09:28:30.409Z,46.70
2018-08-02T09:30:59.288Z,46.40
2018-08-02T09:33:37.480Z,46.60
2018-08-02T09:36:07.320Z,46.00
2018-08-02T09:38:37.256Z,46.00
2018-08-02T09:41:06.284Z,45.30
2018-08-02T09:43:37.068Z,44.70
2018-08-02T09:46:10.053Z,44.50
2018-08-02T09:48:38.797Z,44.20
2018-08-02T09:51:09.585Z,43.90
2018-08-02T09:53:58.028Z,43.20
2018-08-02T09:58:58.256Z,42.10
2018-08-02T10:01:33.552Z,41.40
2018-08-02T10:04:04.812Z,40.90
2018-08-02T10:06:33.680Z,40.40
2018-08-02T10:09:11.448Z,39.10
2018-08-02T10:11:40.244Z,39.10
2018-08-02T10:14:10.044Z,38.60
2018-08-02T10:16:39.976Z,39.30
2018-08-02T10:21:37.193Z,38.40
2018-08-02T10:24:06.521Z,37.80
2018-08-02T10:26:37.260Z,40.30
2018-08-02T10:29:06.089Z,40.60
2018-08-02T10:31:37.945Z,39.00
2018-08-02T10:36:36.320Z,36.30
2018-08-02T10:39:11.737Z,38.10
2018-08-02T10:41:40.556Z,39.20
2018-08-02T10:44:15.188Z,39.00
2018-08-02T10:46:44.955Z,38.10
2018-08-02T10:49:13.772Z,37.70
2018-08-02T10:51:43.576Z,36.90
2018-08-02T10:54:13.376Z,36.40
2018-08-02T10:56:43.196Z,38.10
2018-08-02T10:59:12.036Z,39.60
2018-08-02T11:01:40.857Z,37.80
2018-08-02T11:04:09.828Z,38.70
2018-08-02T11:06:39.628Z,38.60
2018-08-02T11:09:12.037Z,37.30
2018-08-02T11:11:47.424Z,38.80
2018-08-02T11:14:21.006Z,40.40
2018-08-02T11:19:18.356Z,37.10
2018-08-02T11:21:47.132Z,35.70
2018-08-02T11:24:15.916Z,33.80
2018-08-02T11:26:44.727Z,32.40
2018-08-02T11:29:13.488Z,33.20
2018-08-02T11:31:46.225Z,32.70
2018-08-02T11:36:43.371Z,35.00
2018-08-02T11:39:13.159Z,35.90
2018-08-02T11:41:42.996Z,38.80
2018-08-02T11:44:11.743Z,40.80
2018-08-02T11:46:40.559Z,43.30
2018-08-02T11:49:10.351Z,43.70
2018-08-02T11:51:46.697Z,42.50
2018-08-02T11:54:16.583Z,40.30
2018-08-02T11:56:47.723Z,39.10
2018-08-02T11:59:17.450Z,37.80
2018-08-02T12:01:46.332Z,38.20
2018-08-02T12:04:18.256Z,37.50
2018-08-02T12:06:47.059Z,35.30
2018-08-02T12:14:13.931Z,32.90
2018-08-02T12:19:15.799Z,33.50
2018-08-02T12:21:45.678Z,34.70
2018-08-02T12:24:15.449Z,33.90
2018-08-02T12:26:48.114Z,33.00
2018-08-02T12:29:17.476Z,34.60
2018-08-02T12:31:47.188Z,36.30
2018-08-02T12:34:16.975Z,36.30
2018-08-02T12:36:48.953Z,35.60
2018-08-02T12:39:21.020Z,32.90
2018-08-02T12:41:51.798Z,32.40
2018-08-02T12:44:26.216Z,37.80
2018-08-02T12:49:26.667Z,42.10
2018-08-02T12:54:25.015Z,40.90
2018-08-02T12:56:54.744Z,42.10
2018-08-02T12:59:29.419Z,44.30
2018-08-02T13:01:58.156Z,45.10
2018-08-02T13:04:26.907Z,42.70
2018-08-02T13:06:57.679Z,43.40
2018-08-02T13:09:27.600Z,45.60
2018-08-02T13:11:56.284Z,48.30
2018-08-02T13:14:28.137Z,49.20
2018-08-02T13:16:58.883Z,49.10
2018-08-02T13:19:28.751Z,49.20
2018-08-02T13:21:59.876Z,51.20
2018-08-02T13:24:32.530Z,52.20
2018-08-02T13:27:02.344Z,54.50
2018-08-02T13:29:34.947Z,58.70
2018-08-02T13:32:04.866Z,61.20
2018-08-02T13:34:35.895Z,64.40
2018-08-02T13:37:04.753Z,64.00
2018-08-02T13:39:39.180Z,61.50
2018-08-02T13:42:09.760Z,61.10
2018-08-02T13:44:40.712Z,63.30
2018-08-02T13:47:10.360Z,63.50
2018-08-02T13:49:42.516Z,65.90
2018-08-02T13:52:11.241Z,69.10
2018-08-02T13:54:40.006Z,72.30
2018-08-02T13:57:08.808Z,76.60
2018-08-02T13:59:40.716Z,81.50
2018-08-02T14:02:11.580Z,83.00
2018-08-02T14:04:40.365Z,82.10
2018-08-02T14:07:09.218Z,82.50
2018-08-02T14:09:40.004Z,84.40
2018-08-02T14:12:08.768Z,84.80
2018-08-02T14:14:47.972Z,88.90
2018-08-02T14:17:16.788Z,90.40
2018-08-02T14:19:45.475Z,91.30
2018-08-02T14:22:16.325Z,93.40
2018-08-02T14:24:53.976Z,94.80
2018-08-02T14:27:28.411Z,95.20
2018-08-02T14:29:58.238Z,94.90
2018-08-02T14:32:27.028Z,94.00
2018-08-02T14:34:59.229Z,93.20
2018-08-02T14:37:28.996Z,94.10
2018-08-02T14:40:02.403Z,94.30
2018-08-02T14:42:31.563Z,94.40
2018-08-02T14:45:00.372Z,94.90
2018-08-02T14:47:29.171Z,94.70
2018-08-02T14:49:58.981Z,94.60
2018-08-02T14:52:27.783Z,95.10
2018-08-02T14:55:00.069Z,95.90
2018-08-02T14:57:28.831Z,97.80
2018-08-02T15:00:05.138Z,99.90
2018-08-02T15:02:34.184Z,99.90
2018-08-02T15:05:02.948Z,99.90
2018-08-02T15:07:31.744Z,99.90
2018-08-02T15:10:01.660Z,99.90
2018-08-02T15:12:30.516Z,99.90
2018-08-02T15:14:59.363Z,99.90
2018-08-02T15:17:28.124Z,99.90
2018-08-02T15:19:56.860Z,99.90
2018-08-02T15:24:57.728Z,99.90
2018-08-02T15:27:26.570Z,99.90
2018-08-02T15:29:55.364Z,99.90
2018-08-02T15:32:24.196Z,99.70
2018-08-02T15:35:11.308Z,97.90
2018-08-02T15:37:40.588Z,95.80
2018-08-02T15:40:13.161Z,92.40
2018-08-02T15:42:47.680Z,90.30
2018-08-02T15:45:20.152Z,84.10
2018-08-02T15:47:50.884Z,78.70
2018-08-02T15:50:25.828Z,78.70
2018-08-02T15:53:11.052Z,74.10
2018-08-02T15:55:39.827Z,69.30
2018-08-02T15:58:12.228Z,67.00
2018-08-02T16:00:46.807Z,66.30
2018-08-02T16:03:15.656Z,64.60
2018-08-02T16:05:44.494Z,62.60
2018-08-02T16:08:14.324Z,59.40
2018-08-02T16:10:45.070Z,53.80
2018-08-02T16:13:13.989Z,48.40
2018-08-02T16:15:46.592Z,45.00
2018-08-02T16:18:15.402Z,42.40
2018-08-02T16:20:47.467Z,41.20
2018-08-02T16:23:17.316Z,39.50
2018-08-02T16:25:56.016Z,38.10
2018-08-02T16:28:28.588Z,37.50
2018-08-02T16:30:59.340Z,38.20
2018-08-02T16:33:28.080Z,37.50
2018-08-02T16:35:56.996Z,37.40
2018-08-02T16:38:29.384Z,38.10
2018-08-02T16:41:04.908Z,39.20
2018-08-02T16:43:41.621Z,38.70
2018-08-02T16:46:10.524Z,38.30
2018-08-02T16:48:39.292Z,38.50
2018-08-02T16:51:08.119Z,38.90
2018-08-02T16:53:38.855Z,39.50
2018-08-02T16:58:43.371Z,40.10
2018-08-02T17:01:15.255Z,40.30
2018-08-02T17:03:54.787Z,42.10
2018-08-02T17:06:28.300Z,42.10
2018-08-02T17:08:57.132Z,42.80
2018-08-02T17:13:58.008Z,45.70
2018-08-02T17:16:27.715Z,46.50
2018-08-02T17:19:01.499Z,48.30
2018-08-02T17:21:33.943Z,51.00
2018-08-02T17:24:05.300Z,53.10
2018-08-02T17:26:40.731Z,55.60
2018-08-02T17:29:09.639Z,57.10
2018-08-02T17:31:38.835Z,58.00
2018-08-02T17:34:08.959Z,59.00
2018-08-02T17:36:38.795Z,60.50
2018-08-02T17:39:09.907Z,62.10
2018-08-02T17:41:38.739Z,61.80
2018-08-02T17:44:09.039Z,63.40
2018-08-02T17:49:06.527Z,64.20
2018-08-02T17:51:43.451Z,64.40
2018-08-02T17:54:16.983Z,62.80
2018-08-02T17:56:46.819Z,63.20
2018-08-02T17:59:15.603Z,64.20
2018-08-02T18:01:45.343Z,64.80
2018-08-02T18:04:14.139Z,65.80
2018-08-02T18:06:45.955Z,67.50
2018-08-02T18:09:16.827Z,68.50
2018-08-02T18:11:47.607Z,69.60
2018-08-02T18:14:19.555Z,69.90
2018-08-02T18:16:49.287Z,70.60
2018-08-02T18:19:18.043Z,71.50
2018-08-02T18:21:46.884Z,73.50
2018-08-02T18:24:16.708Z,75.80
2018-08-02T18:26:45.443Z,79.60
2018-08-02T18:29:18.096Z,84.70
2018-08-02T18:31:50.399Z,89.50
2018-08-02T18:34:19.282Z,91.60
2018-08-02T18:36:49.130Z,91.60
2018-08-02T18:39:18.980Z,94.20
2018-08-02T18:44:10.387Z,95.10
2018-08-02T18:46:39.199Z,96.10
2018-08-02T18:49:07.952Z,97.60
2018-08-02T18:51:42.991Z,99.90
2018-08-02T18:54:15.659Z,99.90
2018-08-02T18:56:45.499Z,99.90
2018-08-02T18:59:23.951Z,99.90
2018-08-02T19:01:56.195Z,99.90
2018-08-02T19:04:26.972Z,99.90
2018-08-02T19:07:01.135Z,99.90
2018-08-02T19:09:33.839Z,99.90
2018-08-02T19:12:05.783Z,99.90
2018-08-02T19:14:35.611Z,99.90
2018-08-02T19:17:04.523Z,99.90
2018-08-02T19:19:34.406Z,99.90
2018-08-02T19:22:03.506Z,99.90
2018-08-02T19:24:33.187Z,99.90
2018-08-02T19:27:03.039Z,99.90
2018-08-02T19:29:32.851Z,99.90
2018-08-02T19:32:01.869Z,99.90
2018-08-02T19:34:30.723Z,99.90
2018-08-02T19:36:59.675Z,99.90
2018-08-02T19:39:28.419Z,99.90
2018-08-02T19:41:57.310Z,99.90
2018-08-02T19:46:56.611Z,99.90
2018-08-02T19:49:27.473Z,99.90
2018-08-02T19:51:56.214Z,99.90
2018-08-02T19:54:26.159Z,99.90
2018-08-02T19:56:55.031Z,99.90
2018-08-02T19:59:24.423Z,99.90
2018-08-02T20:01:53.335Z,99.90
2018-08-02T20:04:22.275Z,99.90
2018-08-02T20:07:01.587Z,99.90
2018-08-02T20:09:31.473Z,99.90
2018-08-02T20:12:00.451Z,99.90
2018-08-02T20:14:29.487Z,99.90
2018-08-02T20:16:58.455Z,99.90
2018-08-02T20:19:28.415Z,99.90
2018-08-02T20:21:58.473Z,99.90
2018-08-02T20:24:27.393Z,99.90
2018-08-02T20:26:56.323Z,99.90
2018-08-02T20:29:25.175Z,99.90
2018-08-02T20:31:54.264Z,99.90
2018-08-02T20:34:25.100Z,99.90
2018-08-02T20:36:53.999Z,99.90
2018-08-02T20:39:23.947Z,99.90
2018-08-02T20:41:53.915Z,99.90
2018-08-02T20:44:22.872Z,99.90
2018-08-02T20:46:51.712Z,99.90
2018-08-02T20:49:20.568Z,99.90
2018-08-02T20:51:53.075Z,99.90
2018-08-02T20:54:23.087Z,99.90
2018-08-02T20:56:52.004Z,99.90
2018-08-02T20:59:21.115Z,99.90
2018-08-02T21:01:50.975Z,99.90
2018-08-02T21:04:20.023Z,99.90
2018-08-02T21:06:49.935Z,99.90
2018-08-02T21:09:20.839Z,99.90
2018-08-02T21:11:50.675Z,99.90
2018-08-02T21:14:19.583Z,99.90
2018-08-02T21:16:49.472Z,99.90
2018-08-02T21:19:19.443Z,99.90
2018-08-02T21:21:49.347Z,99.90
2018-08-02T21:24:20.195Z,99.90
2018-08-02T21:26:49.468Z,99.90
2018-08-02T21:29:18.463Z,99.90
2018-08-02T21:31:51.546Z,99.90
2018-08-02T21:34:20.424Z,99.90
2018-08-02T21:36:50.379Z,99.90
2018-08-02T21:39:19.184Z,99.90
2018-08-02T21:41:48.367Z,99.90
2018-08-02T21:44:17.318Z,99.90
2018-08-02T21:46:46.339Z,99.90
2018-08-02T21:49:16.183Z,99.90
2018-08-02T21:51:45.155Z,99.90
2018-08-02T21:56:47.091Z,99.90
2018-08-02T21:59:17.035Z,99.90
2018-08-02T22:01:47.299Z,99.90
2018-08-02T22:04:16.338Z,99.90
2018-08-02T22:06:49.502Z,99.90
2018-08-02T22:09:18.346Z,99.90
2018-08-02T22:11:54.739Z,99.90
2018-08-02T22:15:29.663Z,99.90
2018-08-02T22:17:58.656Z,99.90
2018-08-02T22:20:27.636Z,99.90
2018-08-02T22:22:56.608Z,99.90
2018-08-02T22:25:26.159Z,99.90
2018-08-02T22:28:02.863Z,99.90
2018-08-02T22:30:33.027Z,99.90
2018-08-02T22:33:03.543Z,99.90
2018-08-02T22:35:39.579Z,99.90
2018-08-02T22:38:10.451Z,99.90
2018-08-02T22:40:40.385Z,99.90
2018-08-02T22:43:14.119Z,99.90
2018-08-02T22:45:44.111Z,99.90
2018-08-02T22:48:13.015Z,99.90
2018-08-02T22:50:41.919Z,99.90
2018-08-02T22:53:16.439Z,99.90
2018-08-02T22:55:49.090Z,99.90
2018-08-02T22:58:17.934Z,99.90
2018-08-02T23:00:46.850Z,99.90
2018-08-02T23:03:15.814Z,99.90
2018-08-02T23:05:49.779Z,99.90
2018-08-02T23:08:23.922Z,99.90
2018-08-02T23:10:53.906Z,99.90
2018-08-02T23:13:22.906Z,99.90
2018-08-02T23:15:51.818Z,99.90
2018-08-02T23:18:20.674Z,99.90
2018-08-02T23:20:49.614Z,99.90
2018-08-02T23:23:20.474Z,99.90
2018-08-02T23:25:49.238Z,99.90
2018-08-02T23:28:19.134Z,99.90
2018-08-02T23:30:52.502Z,99.90
2018-08-02T23:33:24.594Z,99.90
2018-08-02T23:38:25.038Z,99.90
2018-08-02T23:40:53.938Z,99.90
2018-08-02T23:43:23.861Z,99.90
2018-08-02T23:45:52.765Z,99.90
2018-08-02T23:48:21.601Z,99.90
2018-08-02T23:50:50.718Z,99.90
2018-08-02T23:53:20.586Z,99.90
2018-08-02T23:55:49.491Z,99.90
2018-08-02T23:58:18.354Z,99.90
